createdAt,value
2016-11-11T00:00:46.073Z,0
2016-11-11T00:01:31.135Z,0
2016-11-11T00:02:31.159Z,0
2016-11-11T00:03:31.168Z,0
2016-11-11T00:04:31.189Z,0
2016-11-11T00:05:31.208Z,0
2016-11-11T00:06:31.218Z,0
2016-11-11T00:07:31.237Z,0
2016-11-11T00:08:46.168Z,0
2016-11-11T00:09:31.276Z,0
2016-11-11T00:11:46.214Z,0
2016-11-11T00:12:31.322Z,0
2016-11-11T00:13:31.328Z,0
2016-11-11T00:14:31.348Z,0
2016-11-11T00:16:46.303Z,0
2016-11-11T00:17:31.398Z,0
2016-11-11T00:18:31.418Z,0
2016-11-11T00:19:31.436Z,0
2016-11-11T00:20:46.366Z,0
2016-11-11T00:21:31.510Z,0
2016-11-11T00:22:31.478Z,0
2016-11-11T00:23:31.496Z,0
2016-11-11T00:24:46.427Z,0
2016-11-11T00:25:31.534Z,0
2016-11-11T00:26:46.461Z,0
2016-11-11T00:27:31.567Z,0
2016-11-11T00:28:31.577Z,0
2016-11-11T00:29:31.595Z,0
2016-11-11T00:30:46.838Z,0
2016-11-11T00:31:31.625Z,0
2016-11-11T00:32:31.641Z,0
2016-11-11T00:33:31.656Z,0
2016-11-11T00:34:31.669Z,0
2016-11-11T00:35:46.611Z,0
2016-11-11T00:36:31.703Z,0
2016-11-11T00:37:31.728Z,0
2016-11-11T00:38:46.655Z,0
2016-11-11T00:39:31.793Z,0
2016-11-11T00:40:31.777Z,0
2016-11-11T00:41:31.783Z,0
2016-11-11T00:42:46.713Z,0
2016-11-11T00:43:31.823Z,0
2016-11-11T00:44:31.850Z,0
2016-11-11T00:45:46.772Z,0
2016-11-11T00:46:31.897Z,0
2016-11-11T00:47:31.887Z,0
2016-11-11T00:48:46.816Z,0
2016-11-11T00:49:31.914Z,0
2016-11-11T00:50:31.961Z,0
2016-11-11T00:51:31.954Z,0
2016-11-11T00:52:46.880Z,0
2016-11-11T00:53:31.984Z,0
2016-11-11T00:54:32.011Z,0
2016-11-11T00:55:32.020Z,0
2016-11-11T00:56:32.375Z,0
2016-11-11T00:58:01.881Z,0
2016-11-11T00:58:32.062Z,0
2016-11-11T00:59:32.080Z,0
2016-11-11T01:00:47.007Z,0
2016-11-11T01:02:47.044Z,0
2016-11-11T01:03:32.160Z,0
2016-11-11T01:04:32.164Z,0
2016-11-11T01:05:32.179Z,0
2016-11-11T01:06:32.199Z,0
2016-11-11T01:07:32.222Z,0
2016-11-11T01:08:32.225Z,0
2016-11-11T01:09:47.157Z,0
2016-11-11T01:10:32.258Z,0
2016-11-11T01:11:32.283Z,0
2016-11-11T01:12:32.294Z,0
2016-11-11T01:13:32.309Z,0
2016-11-11T01:14:32.327Z,0
2016-11-11T01:15:47.253Z,0
2016-11-11T01:16:32.350Z,0
2016-11-11T01:17:32.382Z,0
2016-11-11T01:18:32.393Z,0
2016-11-11T01:19:32.434Z,0
2016-11-11T01:20:32.426Z,0
2016-11-11T01:22:32.452Z,0
2016-11-11T01:23:32.474Z,0
2016-11-11T01:24:47.401Z,0
2016-11-11T01:25:32.499Z,0
2016-11-11T01:26:32.515Z,0
2016-11-11T01:27:47.451Z,0
2016-11-11T01:28:32.566Z,0
2016-11-11T01:29:47.489Z,0
2016-11-11T01:30:32.583Z,0
2016-11-11T01:31:47.513Z,0
2016-11-11T01:32:32.642Z,0
2016-11-11T01:33:32.635Z,0
2016-11-11T01:34:32.688Z,0
2016-11-11T01:35:32.665Z,0
2016-11-11T01:36:47.748Z,0
2016-11-11T01:37:32.693Z,0
2016-11-11T01:38:32.711Z,0
2016-11-11T01:39:47.641Z,0
2016-11-11T01:40:32.746Z,0
2016-11-11T01:41:47.680Z,0
2016-11-11T01:42:32.778Z,0
2016-11-11T01:43:47.709Z,0
2016-11-11T01:44:47.725Z,0
2016-11-11T01:45:47.752Z,0
2016-11-11T01:46:32.843Z,0
2016-11-11T01:47:32.864Z,0
2016-11-11T01:49:32.895Z,0
2016-11-11T01:50:32.909Z,0
2016-11-11T01:51:47.841Z,0
2016-11-11T01:52:47.857Z,0
2016-11-11T01:53:32.961Z,0
2016-11-11T01:54:32.971Z,0
2016-11-11T01:55:33.000Z,0
2016-11-11T01:56:33.046Z,0
2016-11-11T01:57:33.022Z,0
2016-11-11T01:59:33.050Z,0
2016-11-11T02:00:33.070Z,0
2016-11-11T02:02:02.912Z,0
2016-11-11T02:02:33.107Z,0
2016-11-11T02:03:33.120Z,0
2016-11-11T02:04:48.046Z,0
2016-11-11T02:05:48.070Z,0
2016-11-11T02:06:33.169Z,0
2016-11-11T02:07:33.221Z,0
2016-11-11T02:08:33.199Z,0
2016-11-11T02:09:33.317Z,0
2016-11-11T02:10:33.231Z,0
2016-11-11T02:11:33.247Z,0
2016-11-11T02:12:33.259Z,0
2016-11-11T02:13:33.557Z,0
2016-11-11T02:14:33.295Z,0
2016-11-11T02:15:48.227Z,0
2016-11-11T02:16:33.324Z,0
2016-11-11T02:17:48.360Z,0
2016-11-11T02:18:33.364Z,0
2016-11-11T02:19:33.381Z,0
2016-11-11T02:20:33.417Z,0
2016-11-11T02:21:33.715Z,0
2016-11-11T02:22:33.428Z,0
2016-11-11T02:23:33.439Z,0
2016-11-11T02:24:33.473Z,0
2016-11-11T02:25:33.469Z,0
2016-11-11T02:27:33.498Z,0
2016-11-11T02:28:48.440Z,0
2016-11-11T02:30:33.555Z,0
2016-11-11T02:31:33.575Z,0
2016-11-11T02:33:33.610Z,0
2016-11-11T02:34:34.143Z,0
2016-11-11T02:35:48.547Z,0
2016-11-11T02:36:33.656Z,0
2016-11-11T02:37:33.672Z,0
2016-11-11T02:38:48.597Z,0
2016-11-11T02:39:48.618Z,0
2016-11-11T02:40:48.626Z,0
2016-11-11T02:41:33.733Z,0
2016-11-11T02:42:33.777Z,0
2016-11-11T02:43:33.758Z,0
2016-11-11T02:45:33.796Z,0
2016-11-11T02:46:33.811Z,0
2016-11-11T02:47:33.832Z,0
2016-11-11T02:48:33.847Z,0
2016-11-11T02:49:33.861Z,0
2016-11-11T02:50:33.878Z,0
2016-11-11T02:51:33.896Z,0
2016-11-11T02:52:34.227Z,0
2016-11-11T02:53:48.842Z,0
2016-11-11T02:54:33.940Z,0
2016-11-11T02:55:33.959Z,0
2016-11-11T02:56:33.968Z,0
2016-11-11T02:57:33.992Z,0
2016-11-11T02:58:48.921Z,0
2016-11-11T02:59:34.021Z,0
2016-11-11T03:00:48.958Z,0
2016-11-11T03:01:34.055Z,0
2016-11-11T03:02:48.981Z,0
2016-11-11T03:03:34.085Z,0
2016-11-11T03:05:34.122Z,0
2016-11-11T03:06:34.140Z,0
2016-11-11T03:07:34.157Z,0
2016-11-11T03:08:34.167Z,0
2016-11-11T03:09:34.187Z,0
2016-11-11T03:10:34.199Z,0
2016-11-11T03:11:34.213Z,0
2016-11-11T03:12:34.233Z,0
2016-11-11T03:13:34.256Z,0
2016-11-11T03:14:49.172Z,0
2016-11-11T03:15:34.288Z,0
2016-11-11T03:16:34.298Z,0
2016-11-11T03:17:34.307Z,0
2016-11-11T03:18:34.321Z,0
2016-11-11T03:19:34.374Z,0
2016-11-11T03:20:49.278Z,0
2016-11-11T03:21:34.376Z,0
2016-11-11T03:22:34.399Z,0
2016-11-11T03:23:34.718Z,0
2016-11-11T03:24:34.429Z,0
2016-11-11T03:25:34.441Z,0
2016-11-11T03:26:34.460Z,0
2016-11-11T03:27:34.474Z,0
2016-11-11T03:28:34.495Z,0
2016-11-11T03:29:34.512Z,0
2016-11-11T03:30:34.524Z,0
2016-11-11T03:31:34.545Z,0
2016-11-11T03:32:34.564Z,0
2016-11-11T03:33:34.574Z,0
2016-11-11T03:34:34.590Z,0
2016-11-11T03:35:34.958Z,0
2016-11-11T03:36:49.535Z,0
2016-11-11T03:37:34.639Z,0
2016-11-11T03:38:34.688Z,0
2016-11-11T03:39:34.667Z,0
2016-11-11T03:40:49.931Z,0
2016-11-11T03:41:34.700Z,0
2016-11-11T03:42:34.715Z,0
2016-11-11T03:43:35.035Z,0
2016-11-11T03:44:34.751Z,0
2016-11-11T03:45:49.684Z,0
2016-11-11T03:46:34.788Z,0
2016-11-11T03:47:34.795Z,0
2016-11-11T03:48:34.809Z,0
2016-11-11T03:50:34.888Z,0
2016-11-11T03:51:35.567Z,0
2016-11-11T03:52:49.797Z,0
2016-11-11T03:53:49.808Z,0
2016-11-11T03:55:34.925Z,0
2016-11-11T03:56:34.948Z,0
2016-11-11T03:57:49.874Z,0
2016-11-11T03:59:49.913Z,0
2016-11-11T04:00:35.008Z,0
2016-11-11T04:01:35.024Z,0
2016-11-11T04:02:35.047Z,0
2016-11-11T04:03:35.054Z,0
2016-11-11T04:04:49.989Z,0
2016-11-11T04:05:35.092Z,0
2016-11-11T04:06:50.049Z,0
2016-11-11T04:07:50.040Z,0
2016-11-11T04:08:35.141Z,0
2016-11-11T04:10:35.176Z,0
2016-11-11T04:11:35.188Z,0
2016-11-11T04:12:50.121Z,0
2016-11-11T04:13:35.536Z,0
2016-11-11T04:14:35.232Z,0
2016-11-11T04:15:35.262Z,0
2016-11-11T04:16:35.267Z,0
2016-11-11T04:17:35.281Z,0
2016-11-11T04:18:35.304Z,0
2016-11-11T04:19:35.316Z,0
2016-11-11T04:20:35.332Z,0
2016-11-11T04:21:35.347Z,0
2016-11-11T04:22:35.389Z,0
2016-11-11T04:23:35.383Z,0
2016-11-11T04:24:50.304Z,0
2016-11-11T04:25:35.713Z,0
2016-11-11T04:26:50.345Z,0
2016-11-11T04:27:35.440Z,0
2016-11-11T04:28:50.369Z,0
2016-11-11T04:29:35.472Z,0
2016-11-11T04:30:35.484Z,0
2016-11-11T04:31:35.511Z,0
2016-11-11T04:32:50.472Z,0
2016-11-11T04:33:50.457Z,0
2016-11-11T04:34:35.555Z,0
2016-11-11T04:35:50.486Z,0
2016-11-11T04:36:35.596Z,0
2016-11-11T04:37:50.516Z,0
2016-11-11T04:38:35.619Z,0
2016-11-11T04:39:50.547Z,0
2016-11-11T04:40:35.655Z,0
2016-11-11T04:41:35.663Z,0
2016-11-11T04:42:35.681Z,0
2016-11-11T04:43:35.699Z,0
2016-11-11T04:44:35.713Z,0
2016-11-11T04:45:35.753Z,0
2016-11-11T04:46:35.740Z,0
2016-11-11T04:47:35.759Z,0
2016-11-11T04:48:35.774Z,0
2016-11-11T04:49:50.710Z,0
2016-11-11T04:50:35.816Z,0
2016-11-11T04:51:35.832Z,0
2016-11-11T04:52:36.180Z,0
2016-11-11T04:53:35.853Z,0
2016-11-11T04:54:50.785Z,0
2016-11-11T04:55:50.801Z,0
2016-11-11T04:56:35.904Z,0
2016-11-11T04:57:50.881Z,0
2016-11-11T04:58:35.940Z,0
2016-11-11T04:59:35.951Z,0
2016-11-11T05:00:50.878Z,0
2016-11-11T05:01:35.983Z,0
2016-11-11T05:02:35.995Z,0
2016-11-11T05:03:36.015Z,0
2016-11-11T05:04:36.035Z,0
2016-11-11T05:05:36.046Z,0
2016-11-11T05:06:36.060Z,0
2016-11-11T05:07:36.077Z,0
2016-11-11T05:08:36.125Z,0
2016-11-11T05:09:36.114Z,0
2016-11-11T05:10:51.041Z,0
2016-11-11T05:11:51.066Z,0
2016-11-11T05:12:51.375Z,0
2016-11-11T05:13:36.167Z,0
2016-11-11T05:14:36.189Z,0
2016-11-11T05:15:51.120Z,0
2016-11-11T05:16:36.222Z,0
2016-11-11T05:17:51.150Z,0
2016-11-11T05:19:36.272Z,0
2016-11-11T05:20:37.631Z,0
2016-11-11T05:21:36.301Z,0
2016-11-11T05:22:36.316Z,0
2016-11-11T05:23:36.333Z,0
2016-11-11T05:24:36.343Z,0
2016-11-11T05:25:51.275Z,0
2016-11-11T05:26:36.390Z,0
2016-11-11T05:28:36.416Z,0
2016-11-11T05:29:36.432Z,0
2016-11-11T05:30:36.441Z,0
2016-11-11T05:31:36.460Z,0
2016-11-11T05:32:36.484Z,0
2016-11-11T05:33:36.494Z,0
2016-11-11T05:34:51.426Z,0
2016-11-11T05:35:36.521Z,0
2016-11-11T05:36:36.534Z,0
2016-11-11T05:37:36.556Z,0
2016-11-11T05:38:36.570Z,0
2016-11-11T05:39:36.590Z,0
2016-11-11T05:40:36.602Z,0
2016-11-11T05:42:51.543Z,0
2016-11-11T05:43:36.644Z,0
2016-11-11T05:44:51.578Z,0
2016-11-11T05:46:36.697Z,0
2016-11-11T05:47:36.719Z,0
2016-11-11T05:48:36.746Z,0
2016-11-11T05:49:36.759Z,0
2016-11-11T05:50:36.778Z,0
2016-11-11T05:51:36.777Z,0
2016-11-11T05:52:36.792Z,0
2016-11-11T05:53:51.727Z,0
2016-11-11T05:54:36.834Z,0
2016-11-11T05:55:36.840Z,0
2016-11-11T05:56:36.861Z,0
2016-11-11T05:57:36.878Z,0
2016-11-11T05:58:36.883Z,0
2016-11-11T05:59:36.904Z,0
2016-11-11T06:00:36.948Z,0
2016-11-11T06:01:36.927Z,0
2016-11-11T06:02:36.955Z,0
2016-11-11T06:03:36.971Z,0
2016-11-11T06:04:36.978Z,0
2016-11-11T06:05:51.907Z,0
2016-11-11T06:06:37.009Z,0
2016-11-11T06:07:51.937Z,0
2016-11-11T06:08:37.047Z,0
2016-11-11T06:09:51.976Z,0
2016-11-11T06:10:37.074Z,0
2016-11-11T06:11:37.093Z,0
2016-11-11T06:12:37.102Z,0
2016-11-11T06:13:37.113Z,0
2016-11-11T06:14:52.046Z,0
2016-11-11T06:15:37.187Z,0
2016-11-11T06:16:52.080Z,0
2016-11-11T06:17:37.436Z,0
2016-11-11T06:19:37.215Z,0
2016-11-11T06:20:37.229Z,0
2016-11-11T06:21:37.247Z,0
2016-11-11T06:22:37.261Z,0
2016-11-11T06:23:52.195Z,0
2016-11-11T06:24:37.446Z,0
2016-11-11T06:25:37.306Z,0
2016-11-11T06:26:37.700Z,0
2016-11-11T06:27:37.331Z,0
2016-11-11T06:28:37.353Z,0
2016-11-11T06:29:37.378Z,0
2016-11-11T06:30:52.300Z,0
2016-11-11T06:31:37.713Z,0
2016-11-11T06:32:37.430Z,0
2016-11-11T06:33:37.437Z,0
2016-11-11T06:34:37.751Z,0
2016-11-11T06:35:52.374Z,0
2016-11-11T06:36:37.783Z,0
2016-11-11T06:37:37.495Z,0
2016-11-11T06:38:37.830Z,0
2016-11-11T06:39:37.531Z,0
2016-11-11T06:41:37.560Z,0
2016-11-11T06:42:37.574Z,0
2016-11-11T06:43:37.590Z,5
2016-11-11T06:44:37.612Z,5
2016-11-11T06:45:37.930Z,5
2016-11-11T06:46:52.552Z,5
2016-11-11T06:47:37.658Z,5
2016-11-11T06:48:52.597Z,5
2016-11-11T06:49:37.688Z,5
2016-11-11T06:50:37.701Z,5
2016-11-11T06:51:37.714Z,5
2016-11-11T06:52:39.134Z,5
2016-11-11T06:53:38.057Z,5
2016-11-11T06:54:37.764Z,5
2016-11-11T06:55:37.780Z,5
2016-11-11T06:56:37.795Z,5
2016-11-11T06:57:52.728Z,5
2016-11-11T06:58:52.743Z,5
2016-11-11T06:59:37.842Z,5
2016-11-11T07:00:37.858Z,5
2016-11-11T07:01:37.869Z,10
2016-11-11T07:03:07.718Z,10
2016-11-11T07:03:37.910Z,10
2016-11-11T07:04:37.924Z,10
2016-11-11T07:05:37.940Z,10
2016-11-11T07:06:37.956Z,10
2016-11-11T07:07:52.881Z,10
2016-11-11T07:08:37.982Z,10
2016-11-11T07:09:37.999Z,10
2016-11-11T07:10:38.019Z,10
2016-11-11T07:14:38.084Z,10
2016-11-11T07:15:38.105Z,10
2016-11-11T07:16:53.055Z,10
2016-11-11T07:17:53.079Z,15
2016-11-11T07:18:38.135Z,15
2016-11-11T07:19:38.161Z,15
2016-11-11T07:21:38.492Z,15
2016-11-11T07:22:53.113Z,15
2016-11-11T07:23:38.251Z,15
2016-11-11T07:24:38.536Z,15
2016-11-11T07:25:39.005Z,15
2016-11-11T07:26:38.284Z,15
2016-11-11T07:27:38.283Z,15
2016-11-11T07:28:38.301Z,15
2016-11-11T07:29:38.311Z,15
2016-11-11T07:30:38.332Z,15
2016-11-11T07:31:38.345Z,15
2016-11-11T07:32:38.660Z,15
2016-11-11T07:33:38.379Z,15
2016-11-11T07:34:38.384Z,15
2016-11-11T07:35:38.409Z,15
2016-11-11T07:36:38.453Z,15
2016-11-11T07:37:38.437Z,15
2016-11-11T07:38:38.708Z,15
2016-11-11T07:39:38.467Z,15
2016-11-11T07:40:38.500Z,15
2016-11-11T07:41:38.499Z,15
2016-11-11T07:42:38.818Z,15
2016-11-11T07:43:38.527Z,15
2016-11-11T07:44:38.544Z,20
2016-11-11T07:45:38.557Z,20
2016-11-11T07:46:38.574Z,20
2016-11-11T07:47:38.589Z,20
2016-11-11T07:48:38.606Z,20
2016-11-11T07:49:53.532Z,20
2016-11-11T07:50:38.644Z,15
2016-11-11T07:51:54.220Z,15
2016-11-11T07:52:38.666Z,15
2016-11-11T07:53:38.681Z,15
2016-11-11T07:54:38.799Z,20
2016-11-11T07:55:38.758Z,25
2016-11-11T07:56:38.772Z,30
2016-11-11T07:57:38.754Z,30
2016-11-11T07:58:38.766Z,35
2016-11-11T07:59:53.684Z,40
2016-11-11T08:00:38.793Z,45
2016-11-11T08:01:53.726Z,50
2016-11-11T08:02:38.829Z,45
2016-11-11T08:03:38.835Z,45
2016-11-11T08:04:53.773Z,45
2016-11-11T08:05:53.780Z,45
2016-11-11T08:06:38.882Z,45
2016-11-11T08:07:38.951Z,40
2016-11-11T08:08:53.826Z,40
2016-11-11T08:09:53.841Z,35
2016-11-11T08:11:39.293Z,35
2016-11-11T08:12:39.030Z,35
2016-11-11T08:13:53.908Z,35
2016-11-11T08:14:39.017Z,35
2016-11-11T08:16:39.043Z,35
2016-11-11T08:17:39.058Z,35
2016-11-11T08:19:39.092Z,40
2016-11-11T08:20:39.100Z,40
2016-11-11T08:21:54.029Z,35
2016-11-11T08:22:39.382Z,35
2016-11-11T08:23:39.146Z,35
2016-11-11T08:25:39.229Z,35
2016-11-11T08:26:54.119Z,40
2016-11-11T08:27:39.582Z,40
2016-11-11T08:28:39.226Z,45
2016-11-11T08:29:39.251Z,50
2016-11-11T08:30:39.261Z,50
2016-11-11T08:31:54.184Z,50
2016-11-11T08:32:39.289Z,45
2016-11-11T08:33:54.256Z,45
2016-11-11T08:34:54.240Z,50
2016-11-11T08:35:39.342Z,50
2016-11-11T08:36:54.266Z,45
2016-11-11T08:37:54.287Z,50
2016-11-11T08:38:39.380Z,50
2016-11-11T08:39:39.711Z,45
2016-11-11T08:40:39.421Z,45
2016-11-11T08:41:39.436Z,45
2016-11-11T08:42:39.501Z,50
2016-11-11T08:43:39.468Z,55
2016-11-11T08:44:39.485Z,60
2016-11-11T08:45:39.494Z,55
2016-11-11T08:46:39.513Z,55
2016-11-11T08:47:39.536Z,65
2016-11-11T08:48:39.543Z,75
2016-11-11T08:49:39.557Z,75
2016-11-11T08:50:54.492Z,60
2016-11-11T08:51:54.504Z,50
2016-11-11T08:52:54.838Z,50
2016-11-11T08:53:39.630Z,50
2016-11-11T08:54:39.642Z,50
2016-11-11T08:55:39.661Z,50
2016-11-11T08:56:39.670Z,50
2016-11-11T08:57:40.003Z,55
2016-11-11T08:58:39.718Z,60
2016-11-11T08:59:39.715Z,60
2016-11-11T09:00:54.804Z,65
2016-11-11T09:01:54.675Z,60
2016-11-11T09:02:54.735Z,60
2016-11-11T09:03:39.989Z,55
2016-11-11T09:05:39.823Z,50
2016-11-11T09:06:39.873Z,50
2016-11-11T09:07:54.767Z,50
2016-11-11T09:08:39.930Z,50
2016-11-11T09:09:39.890Z,50
2016-11-11T09:10:39.904Z,55
2016-11-11T09:11:39.918Z,55
2016-11-11T09:12:40.386Z,50
2016-11-11T09:13:39.980Z,50
2016-11-11T09:14:54.925Z,50
2016-11-11T09:15:54.902Z,55
2016-11-11T09:16:39.999Z,50
2016-11-11T09:17:54.927Z,50
2016-11-11T09:18:40.027Z,50
2016-11-11T09:19:54.994Z,50
2016-11-11T09:20:40.056Z,50
2016-11-11T09:21:40.077Z,50
2016-11-11T09:22:55.011Z,45
2016-11-11T09:23:40.269Z,45
2016-11-11T09:24:55.045Z,45
2016-11-11T09:25:40.148Z,45
2016-11-11T09:26:40.159Z,50
2016-11-11T09:27:55.091Z,50
2016-11-11T09:28:40.195Z,50
2016-11-11T09:29:55.135Z,50
2016-11-11T09:30:40.228Z,50
2016-11-11T09:31:40.297Z,55
2016-11-11T09:32:40.270Z,55
2016-11-11T09:33:40.278Z,55
2016-11-11T09:34:40.306Z,55
2016-11-11T09:35:40.309Z,60
2016-11-11T09:36:40.340Z,60
2016-11-11T09:37:40.351Z,55
2016-11-11T09:38:40.360Z,55
2016-11-11T09:39:40.635Z,60
2016-11-11T09:40:55.308Z,60
2016-11-11T09:41:55.325Z,65
2016-11-11T09:42:40.426Z,70
2016-11-11T09:43:40.476Z,75
2016-11-11T09:44:55.375Z,80
2016-11-11T09:45:40.475Z,75
2016-11-11T09:46:40.493Z,75
2016-11-11T09:47:40.509Z,75
2016-11-11T09:48:40.526Z,75
2016-11-11T09:50:40.943Z,85
2016-11-11T09:51:40.578Z,85
2016-11-11T09:52:40.581Z,90
2016-11-11T09:53:40.604Z,85
2016-11-11T09:54:40.639Z,85
2016-11-11T09:55:40.634Z,85
2016-11-11T09:57:10.483Z,90
2016-11-11T09:57:41.023Z,90
2016-11-11T09:58:40.735Z,90
2016-11-11T09:59:55.615Z,85
2016-11-11T10:00:41.024Z,85
2016-11-11T10:01:40.734Z,75
2016-11-11T10:02:41.148Z,75
2016-11-11T10:03:40.766Z,75
2016-11-11T10:04:40.786Z,70
2016-11-11T10:05:55.720Z,65
2016-11-11T10:06:40.857Z,60
2016-11-11T10:07:40.838Z,60
2016-11-11T10:08:40.860Z,60
2016-11-11T10:10:40.887Z,60
2016-11-11T10:11:40.911Z,60
2016-11-11T10:12:55.829Z,65
2016-11-11T10:13:41.235Z,65
2016-11-11T10:14:40.981Z,65
2016-11-11T10:15:40.969Z,65
2016-11-11T10:16:40.980Z,60
2016-11-11T10:17:41.002Z,50
2016-11-11T10:18:41.019Z,55
2016-11-11T10:19:41.040Z,55
2016-11-11T10:20:41.101Z,55
2016-11-11T10:21:55.980Z,55
2016-11-11T10:22:41.095Z,55
2016-11-11T10:23:56.024Z,55
2016-11-11T10:24:41.119Z,60
2016-11-11T10:25:41.450Z,65
2016-11-11T10:26:41.151Z,70
2016-11-11T10:27:56.083Z,70
2016-11-11T10:28:41.196Z,75
2016-11-11T10:29:56.124Z,80
2016-11-11T10:30:56.132Z,80
2016-11-11T10:31:41.599Z,80
2016-11-11T10:32:56.173Z,80
2016-11-11T10:33:56.185Z,75
2016-11-11T10:34:56.204Z,70
2016-11-11T10:35:56.221Z,65
2016-11-11T10:36:41.323Z,65
2016-11-11T10:37:41.346Z,65
2016-11-11T10:38:41.361Z,70
2016-11-11T10:39:56.292Z,70
2016-11-11T10:40:41.397Z,65
2016-11-11T10:41:41.414Z,60
2016-11-11T10:42:41.474Z,55
2016-11-11T10:43:41.442Z,60
2016-11-11T10:44:41.707Z,65
2016-11-11T10:45:41.482Z,65
2016-11-11T10:46:41.494Z,55
2016-11-11T10:47:41.501Z,50
2016-11-11T10:48:41.572Z,55
2016-11-11T10:49:56.455Z,55
2016-11-11T10:50:41.561Z,50
2016-11-11T10:51:41.580Z,50
2016-11-11T10:52:41.598Z,50
2016-11-11T10:53:41.610Z,50
2016-11-11T10:54:41.628Z,50
2016-11-11T10:55:41.688Z,50
2016-11-11T10:56:41.656Z,50
2016-11-11T10:57:41.672Z,50
2016-11-11T10:58:56.607Z,50
2016-11-11T11:00:11.537Z,55
2016-11-11T11:00:56.639Z,60
2016-11-11T11:01:56.958Z,60
2016-11-11T11:02:41.763Z,60
2016-11-11T11:03:42.090Z,65
2016-11-11T11:04:41.793Z,70
2016-11-11T11:05:41.850Z,75
2016-11-11T11:06:41.829Z,80
2016-11-11T11:07:56.755Z,85
2016-11-11T11:08:41.860Z,90
2016-11-11T11:09:41.929Z,90
2016-11-11T11:10:41.958Z,95
2016-11-11T11:11:41.910Z,100
2016-11-11T11:12:41.926Z,100
2016-11-11T11:14:41.957Z,100
2016-11-11T11:16:11.808Z,105
2016-11-11T11:16:41.993Z,105
2016-11-11T11:17:42.015Z,100
2016-11-11T11:18:42.029Z,100
2016-11-11T11:19:42.082Z,100
2016-11-11T11:21:57.199Z,110
2016-11-11T11:22:42.411Z,120
2016-11-11T11:23:57.031Z,120
2016-11-11T11:24:42.158Z,115
2016-11-11T11:25:57.066Z,110
2016-11-11T11:26:42.171Z,110
2016-11-11T11:27:57.111Z,115
2016-11-11T11:28:42.517Z,115
2016-11-11T11:29:42.227Z,110
2016-11-11T11:30:57.209Z,100
2016-11-11T11:32:12.135Z,100
2016-11-11T11:33:42.289Z,100
2016-11-11T11:34:42.303Z,110
2016-11-11T11:35:42.335Z,110
2016-11-11T11:36:42.369Z,100
2016-11-11T11:37:42.675Z,100
2016-11-11T11:38:42.378Z,100
2016-11-11T11:39:42.407Z,105
2016-11-11T11:40:57.353Z,100
2016-11-11T11:41:42.441Z,100
2016-11-11T11:42:42.752Z,95
2016-11-11T11:43:43.318Z,95
2016-11-11T11:45:42.504Z,90
2016-11-11T11:46:42.569Z,90
2016-11-11T11:47:57.448Z,90
2016-11-11T11:48:42.558Z,85
2016-11-11T11:49:57.481Z,85
2016-11-11T11:50:42.585Z,85
2016-11-11T11:51:42.612Z,90
2016-11-11T11:52:42.619Z,95
2016-11-11T11:53:42.638Z,90
2016-11-11T11:54:42.651Z,90
2016-11-11T11:55:57.587Z,90
2016-11-11T11:56:42.687Z,90
2016-11-11T11:57:42.807Z,90
2016-11-11T11:58:42.734Z,90
2016-11-11T11:59:42.754Z,90
2016-11-11T12:00:42.766Z,90
2016-11-11T12:01:42.912Z,85
2016-11-11T12:03:12.624Z,80
2016-11-11T12:03:57.776Z,80
2016-11-11T12:04:42.832Z,80
2016-11-11T12:05:42.852Z,80
2016-11-11T12:06:42.874Z,80
2016-11-11T12:07:57.801Z,70
2016-11-11T12:08:43.222Z,70
2016-11-11T12:09:42.930Z,75
2016-11-11T12:10:42.937Z,75
2016-11-11T12:11:43.019Z,75
2016-11-11T12:12:57.936Z,75
2016-11-11T12:13:42.986Z,80
2016-11-11T12:14:57.922Z,80
2016-11-11T12:15:43.018Z,85
2016-11-11T12:16:57.954Z,90
2016-11-11T12:17:43.367Z,90
2016-11-11T12:18:43.077Z,90
2016-11-11T12:19:43.088Z,95
2016-11-11T12:20:43.109Z,95
2016-11-11T12:21:43.128Z,95
2016-11-11T12:22:43.190Z,95
2016-11-11T12:23:43.215Z,95
2016-11-11T12:24:43.231Z,90
2016-11-11T12:25:43.205Z,90
2016-11-11T12:26:58.133Z,85
2016-11-11T12:28:43.497Z,90
2016-11-11T12:29:43.275Z,85
2016-11-11T12:30:43.468Z,85
2016-11-11T12:32:43.314Z,90
2016-11-11T12:33:43.685Z,85
2016-11-11T12:35:13.178Z,95
2016-11-11T12:35:43.372Z,95
2016-11-11T12:36:43.632Z,105
2016-11-11T12:37:43.411Z,90
2016-11-11T12:38:43.427Z,85
2016-11-11T12:39:44.186Z,80
2016-11-11T12:40:58.367Z,70
2016-11-11T12:41:43.467Z,70
2016-11-11T12:42:43.490Z,75
2016-11-11T12:43:43.508Z,65
2016-11-11T12:44:58.474Z,60
2016-11-11T12:45:43.536Z,55
2016-11-11T12:46:43.552Z,55
2016-11-11T12:47:43.587Z,55
2016-11-11T12:48:58.507Z,55
2016-11-11T12:49:43.620Z,60
2016-11-11T12:50:58.851Z,65
2016-11-11T12:51:43.958Z,60
2016-11-11T12:52:43.659Z,65
2016-11-11T12:53:43.681Z,70
2016-11-11T12:54:58.657Z,60
2016-11-11T12:55:43.715Z,60
2016-11-11T12:56:43.733Z,55
2016-11-11T12:57:43.747Z,55
2016-11-11T12:58:43.768Z,60
2016-11-11T12:59:58.698Z,60
2016-11-11T13:00:44.548Z,60
2016-11-11T13:01:43.815Z,60
2016-11-11T13:02:43.835Z,60
2016-11-11T13:03:43.848Z,60
2016-11-11T13:05:43.885Z,60
2016-11-11T13:06:58.822Z,60
2016-11-11T13:07:58.832Z,55
2016-11-11T13:08:58.850Z,50
2016-11-11T13:09:43.963Z,45
2016-11-11T13:10:43.972Z,50
2016-11-11T13:11:43.989Z,45
2016-11-11T13:12:44.001Z,45
2016-11-11T13:13:44.022Z,40
2016-11-11T13:14:44.033Z,45
2016-11-11T13:15:44.083Z,45
2016-11-11T13:17:59.009Z,50
2016-11-11T13:18:44.106Z,50
2016-11-11T13:19:59.041Z,50
2016-11-11T13:20:44.136Z,50
2016-11-11T13:21:44.158Z,50
2016-11-11T13:22:59.089Z,50
2016-11-11T13:23:44.193Z,45
2016-11-11T13:24:44.216Z,50
2016-11-11T13:25:44.230Z,50
2016-11-11T13:26:44.243Z,55
2016-11-11T13:27:44.624Z,55
2016-11-11T13:28:44.281Z,55
2016-11-11T13:30:44.317Z,55
2016-11-11T13:31:44.830Z,55
2016-11-11T13:32:44.349Z,55
2016-11-11T13:33:44.373Z,55
2016-11-11T13:34:59.300Z,55
2016-11-11T13:35:59.312Z,55
2016-11-11T13:37:59.378Z,55
2016-11-11T13:38:44.445Z,50
2016-11-11T13:39:59.378Z,50
2016-11-11T13:40:44.485Z,50
2016-11-11T13:41:44.501Z,50
2016-11-11T13:42:44.521Z,50
2016-11-11T13:43:59.453Z,55
2016-11-11T13:44:44.555Z,50
2016-11-11T13:45:44.569Z,50
2016-11-11T13:46:44.596Z,50
2016-11-11T13:47:44.601Z,50
2016-11-11T13:48:44.620Z,50
2016-11-11T13:50:45.117Z,55
2016-11-11T13:51:44.675Z,50
2016-11-11T13:53:44.720Z,60
2016-11-11T13:54:44.720Z,60
2016-11-11T13:55:45.111Z,50
2016-11-11T13:57:44.781Z,60
2016-11-11T13:58:44.789Z,60
2016-11-11T13:59:45.110Z,60
2016-11-11T14:00:44.824Z,60
2016-11-11T14:01:44.843Z,60
2016-11-11T14:02:44.853Z,55
2016-11-11T14:03:59.796Z,55
2016-11-11T14:04:44.888Z,50
2016-11-11T14:05:59.827Z,55
2016-11-11T14:06:59.843Z,50
2016-11-11T14:10:14.805Z,45
2016-11-11T14:10:44.995Z,45
2016-11-11T14:11:45.009Z,45
2016-11-11T14:12:45.028Z,40
2016-11-11T14:13:45.071Z,45
2016-11-11T14:14:45.061Z,40
2016-11-11T14:15:45.077Z,40
2016-11-11T14:16:45.097Z,40
2016-11-11T14:17:45.108Z,40
2016-11-11T14:19:00.633Z,40
2016-11-11T14:19:45.454Z,35
2016-11-11T14:20:45.162Z,35
2016-11-11T14:21:45.175Z,35
2016-11-11T14:22:45.198Z,35
2016-11-11T14:24:00.129Z,35
2016-11-11T14:24:45.245Z,35
2016-11-11T14:26:00.160Z,35
2016-11-11T14:27:00.178Z,30
2016-11-11T14:27:45.277Z,30
2016-11-11T14:29:00.226Z,30
2016-11-11T14:29:45.378Z,25
2016-11-11T14:31:45.378Z,25
2016-11-11T14:32:45.366Z,25
2016-11-11T14:33:45.377Z,20
2016-11-11T14:34:45.395Z,20
2016-11-11T14:35:45.415Z,20
2016-11-11T14:36:45.438Z,20
2016-11-11T14:37:45.458Z,20
2016-11-11T14:38:45.468Z,15
2016-11-11T14:40:00.396Z,15
2016-11-11T14:40:45.495Z,15
2016-11-11T14:42:00.427Z,15
2016-11-11T14:42:45.526Z,15
2016-11-11T14:44:45.567Z,15
2016-11-11T14:45:45.583Z,10
2016-11-11T14:46:45.598Z,10
2016-11-11T14:47:45.615Z,10
2016-11-11T14:48:45.628Z,10
2016-11-11T14:49:45.643Z,10
2016-11-11T14:51:00.577Z,10
2016-11-11T14:51:45.684Z,10
2016-11-11T14:54:00.628Z,10
2016-11-11T14:56:45.762Z,10
2016-11-11T14:58:45.794Z,10
2016-11-11T15:00:00.727Z,10
2016-11-11T15:00:45.879Z,10
2016-11-11T15:01:45.850Z,10
2016-11-11T15:02:45.865Z,10
2016-11-11T15:03:45.888Z,10
2016-11-11T15:04:45.892Z,10
2016-11-11T15:05:45.918Z,10
2016-11-11T15:06:45.939Z,5
2016-11-11T15:07:45.954Z,5
2016-11-11T15:08:45.959Z,5
2016-11-11T15:09:45.979Z,5
2016-11-11T15:10:45.994Z,5
2016-11-11T15:12:00.985Z,5
2016-11-11T15:13:00.936Z,5
2016-11-11T15:13:46.050Z,5
2016-11-11T15:14:46.060Z,5
2016-11-11T15:15:46.076Z,5
2016-11-11T15:16:46.091Z,5
2016-11-11T15:17:46.109Z,5
2016-11-11T15:18:46.131Z,0
2016-11-11T15:19:46.150Z,0
2016-11-11T15:20:46.164Z,0
2016-11-11T15:21:46.173Z,0
2016-11-11T15:22:46.186Z,0